sensor_id;sensor_type;location;lat;lon;timestamp;temperature;humidity
14529;DHT22;7351;51.194;4.098;2023-02-01T00:02:24;16.30;99.90
14529;DHT22;7351;51.194;4.098;2023-02-01T00:04:52;16.30;99.90
14529;DHT22;7351;51.194;4.098;2023-02-01T00:07:19;16.30;99.90
14529;DHT22;7351;51.194;4.098;2023-02-01T00:09:46;16.30;99.90
14529;DHT22;7351;51.194;4.098;2023-02-01T00:12:13;16.30;99.90
14529;DHT22;7351;51.194;4.098;2023-02-01T00:14:40;16.20;99.90
14529;DHT22;7351;51.194;4.098;2023-02-01T00:17:07;16.30;99.90
14529;DHT22;7351;51.194;4.098;2023-02-01T00:19:34;16.20;99.90
14529;DHT22;7351;51.194;4.098;2023-02-01T00:22:03;16.20;99.90
14529;DHT22;7351;51.194;4.098;2023-02-01T00:24:30;16.30;99.90
14529;DHT22;7351;51.194;4.098;2023-02-01T00:26:56;16.30;99.90
14529;DHT22;7351;51.194;4.098;2023-02-01T00:29:23;16.30;99.90
14529;DHT22;7351;51.194;4.098;2023-02-01T00:31:51;16.20;99.90
14529;DHT22;7351;51.194;4.098;2023-02-01T00:34:19;16.20;99.90
14529;DHT22;7351;51.194;4.098;2023-02-01T00:36:46;16.20;99.90
14529;DHT22;7351;51.194;4.098;2023-02-01T00:39:15;16.20;99.90
14529;DHT22;7351;51.194;4.098;2023-02-01T00:41:42;16.10;99.90
14529;DHT22;7351;51.194;4.098;2023-02-01T00:44:09;16.10;99.90
14529;DHT22;7351;51.194;4.098;2023-02-01T00:46:36;16.10;99.90
14529;DHT22;7351;51.194;4.098;2023-02-01T00:49:03;16.10;99.90
14529;DHT22;7351;51.194;4.098;2023-02-01T00:51:32;16.10;99.90
14529;DHT22;7351;51.194;4.098;2023-02-01T00:53:59;16.10;99.90
14529;DHT22;7351;51.194;4.098;2023-02-01T00:56:28;16.10;99.90
14529;DHT22;7351;51.194;4.098;2023-02-01T00:58:55;16.10;99.90
14529;DHT22;7351;51.194;4.098;2023-02-01T01:01:23;16.10;99.90
14529;DHT22;7351;51.194;4.098;2023-02-01T01:03:52;16.00;99.90
14529;DHT22;7351;51.194;4.098;2023-02-01T01:06:21;16.00;99.90
14529;DHT22;7351;51.194;4.098;2023-02-01T01:08:50;16.00;99.90
14529;DHT22;7351;51.194;4.098;2023-02-01T01:11:19;16.00;99.90
14529;DHT22;7351;51.194;4.098;2023-02-01T01:13:49;16.00;99.90
14529;DHT22;7351;51.194;4.098;2023-02-01T01:16:16;16.00;99.90
14529;DHT22;7351;51.194;4.098;2023-02-01T01:18:44;16.00;99.90
14529;DHT22;7351;51.194;4.098;2023-02-01T01:21:13;16.00;99.90
14529;DHT22;7351;51.194;4.098;2023-02-01T01:23:40;16.00;99.90
14529;DHT22;7351;51.194;4.098;2023-02-01T01:26:09;16.00;99.90
14529;DHT22;7351;51.194;4.098;2023-02-01T01:28:36;15.90;99.90
14529;DHT22;7351;51.194;4.098;2023-02-01T01:31:07;15.90;99.90
14529;DHT22;7351;51.194;4.098;2023-02-01T01:33:35;16.00;99.90
14529;DHT22;7351;51.194;4.098;2023-02-01T01:36:02;15.90;99.90
14529;DHT22;7351;51.194;4.098;2023-02-01T01:38:30;15.90;99.90
14529;DHT22;7351;51.194;4.098;2023-02-01T01:40:57;15.90;99.90
14529;DHT22;7351;51.194;4.098;2023-02-01T01:43:24;15.90;99.90
14529;DHT22;7351;51.194;4.098;2023-02-01T01:45:51;15.90;99.90
14529;DHT22;7351;51.194;4.098;2023-02-01T01:48:24;15.90;99.90
14529;DHT22;7351;51.194;4.098;2023-02-01T01:50:56;15.90;99.90
14529;DHT22;7351;51.194;4.098;2023-02-01T01:53:28;15.90;99.90
14529;DHT22;7351;51.194;4.098;2023-02-01T01:55:57;15.90;99.90
14529;DHT22;7351;51.194;4.098;2023-02-01T01:58:26;15.90;99.90
14529;DHT22;7351;51.194;4.098;2023-02-01T02:00:55;15.80;99.90
14529;DHT22;7351;51.194;4.098;2023-02-01T02:03:25;15.90;99.90
14529;DHT22;7351;51.194;4.098;2023-02-01T02:05:57;15.80;99.90
14529;DHT22;7351;51.194;4.098;2023-02-01T02:08:27;15.90;99.90
14529;DHT22;7351;51.194;4.098;2023-02-01T02:10:54;15.80;99.90
14529;DHT22;7351;51.194;4.098;2023-02-01T02:13:29;15.80;99.90
14529;DHT22;7351;51.194;4.098;2023-02-01T02:16:06;15.80;99.90
14529;DHT22;7351;51.194;4.098;2023-02-01T02:18:44;15.80;99.90
14529;DHT22;7351;51.194;4.098;2023-02-01T02:21:17;15.80;99.90
14529;DHT22;7351;51.194;4.098;2023-02-01T02:24:22;15.80;99.90
14529;DHT22;7351;51.194;4.098;2023-02-01T02:27:00;15.80;99.90
14529;DHT22;7351;51.194;4.098;2023-02-01T02:30:09;15.80;99.90
14529;DHT22;7351;51.194;4.098;2023-02-01T02:35:48;15.70;99.90
14529;DHT22;7351;51.194;4.098;2023-02-01T02:38:22;15.70;99.90
14529;DHT22;7351;51.194;4.098;2023-02-01T02:40:58;15.70;99.90
14529;DHT22;7351;51.194;4.098;2023-02-01T02:43:35;15.70;99.90
14529;DHT22;7351;51.194;4.098;2023-02-01T02:46:25;15.70;99.90
14529;DHT22;7351;51.194;4.098;2023-02-01T02:49:14;15.70;99.90
14529;DHT22;7351;51.194;4.098;2023-02-01T02:51:47;15.60;99.90
14529;DHT22;7351;51.194;4.098;2023-02-01T02:54:45;15.70;99.90
14529;DHT22;7351;51.194;4.098;2023-02-01T02:57:17;15.60;99.90
14529;DHT22;7351;51.194;4.098;2023-02-01T03:00:05;15.60;99.90
14529;DHT22;7351;51.194;4.098;2023-02-01T03:02:50;15.60;99.90
14529;DHT22;7351;51.194;4.098;2023-02-01T03:05:39;15.60;99.90
14529;DHT22;7351;51.194;4.098;2023-02-01T03:08:11;15.70;99.90
14529;DHT22;7351;51.194;4.098;2023-02-01T03:10:44;15.60;99.90
14529;DHT22;7351;51.194;4.098;2023-02-01T03:13:20;15.60;99.90
14529;DHT22;7351;51.194;4.098;2023-02-01T03:15:53;15.60;99.90
14529;DHT22;7351;51.194;4.098;2023-02-01T03:18:28;15.70;99.90
14529;DHT22;7351;51.194;4.098;2023-02-01T03:20:59;15.60;99.90
14529;DHT22;7351;51.194;4.098;2023-02-01T03:23:32;15.60;99.90
14529;DHT22;7351;51.194;4.098;2023-02-01T03:26:00;15.60;99.90
14529;DHT22;7351;51.194;4.098;2023-02-01T03:28:30;15.60;99.90
14529;DHT22;7351;51.194;4.098;2023-02-01T03:30:58;15.60;99.90
14529;DHT22;7351;51.194;4.098;2023-02-01T03:33:26;15.60;99.90
14529;DHT22;7351;51.194;4.098;2023-02-01T03:36:01;15.60;99.90
14529;DHT22;7351;51.194;4.098;2023-02-01T03:38:34;15.60;99.90
14529;DHT22;7351;51.194;4.098;2023-02-01T03:41:10;15.60;99.90
14529;DHT22;7351;51.194;4.098;2023-02-01T03:43:46;15.60;99.90
14529;DHT22;7351;51.194;4.098;2023-02-01T03:46:20;15.60;99.90
14529;DHT22;7351;51.194;4.098;2023-02-01T03:48:49;15.60;99.90
14529;DHT22;7351;51.194;4.098;2023-02-01T03:51:18;15.60;99.90
14529;DHT22;7351;51.194;4.098;2023-02-01T03:53:47;15.60;99.90
14529;DHT22;7351;51.194;4.098;2023-02-01T03:56:16;15.60;99.90
14529;DHT22;7351;51.194;4.098;2023-02-01T03:58:43;15.60;99.90
14529;DHT22;7351;51.194;4.098;2023-02-01T04:01:24;15.60;99.90
14529;DHT22;7351;51.194;4.098;2023-02-01T04:03:51;15.60;99.90
14529;DHT22;7351;51.194;4.098;2023-02-01T04:06:18;15.50;99.90
14529;DHT22;7351;51.194;4.098;2023-02-01T04:08:47;15.50;99.90
14529;DHT22;7351;51.194;4.098;2023-02-01T04:11:14;15.50;99.90
14529;DHT22;7351;51.194;4.098;2023-02-01T04:13:40;15.50;99.90
14529;DHT22;7351;51.194;4.098;2023-02-01T04:16:07;15.50;99.90
14529;DHT22;7351;51.194;4.098;2023-02-01T04:18:34;15.50;99.90
14529;DHT22;7351;51.194;4.098;2023-02-01T04:21:02;15.60;99.90
14529;DHT22;7351;51.194;4.098;2023-02-01T04:23:29;15.60;99.90
14529;DHT22;7351;51.194;4.098;2023-02-01T04:26:00;15.70;99.90
14529;DHT22;7351;51.194;4.098;2023-02-01T04:28:28;15.80;99.90
14529;DHT22;7351;51.194;4.098;2023-02-01T04:30:55;15.80;99.90
14529;DHT22;7351;51.194;4.098;2023-02-01T04:33:22;16.00;99.90
14529;DHT22;7351;51.194;4.098;2023-02-01T04:35:49;16.10;99.90
14529;DHT22;7351;51.194;4.098;2023-02-01T04:38:16;16.20;99.90
14529;DHT22;7351;51.194;4.098;2023-02-01T04:40:43;16.30;99.90
14529;DHT22;7351;51.194;4.098;2023-02-01T04:43:11;16.30;99.90
14529;DHT22;7351;51.194;4.098;2023-02-01T04:45:38;16.40;99.90
14529;DHT22;7351;51.194;4.098;2023-02-01T04:48:05;16.50;99.90
14529;DHT22;7351;51.194;4.098;2023-02-01T04:50:32;16.60;99.90
14529;DHT22;7351;51.194;4.098;2023-02-01T04:52:59;16.60;99.90
14529;DHT22;7351;51.194;4.098;2023-02-01T04:55:26;16.70;99.90
14529;DHT22;7351;51.194;4.098;2023-02-01T04:57:53;16.80;99.90
14529;DHT22;7351;51.194;4.098;2023-02-01T05:00:22;17.00;99.90
14529;DHT22;7351;51.194;4.098;2023-02-01T05:02:50;17.10;99.90
14529;DHT22;7351;51.194;4.098;2023-02-01T05:05:17;17.20;99.90
14529;DHT22;7351;51.194;4.098;2023-02-01T05:07:45;17.30;99.90
14529;DHT22;7351;51.194;4.098;2023-02-01T05:10:12;17.40;99.90
14529;DHT22;7351;51.194;4.098;2023-02-01T05:12:39;17.50;99.90
14529;DHT22;7351;51.194;4.098;2023-02-01T05:15:25;17.50;99.90
14529;DHT22;7351;51.194;4.098;2023-02-01T05:17:52;17.60;99.90
14529;DHT22;7351;51.194;4.098;2023-02-01T05:20:19;17.70;99.90
14529;DHT22;7351;51.194;4.098;2023-02-01T05:22:46;17.80;99.90
14529;DHT22;7351;51.194;4.098;2023-02-01T05:25:13;17.90;99.90
14529;DHT22;7351;51.194;4.098;2023-02-01T05:27:40;17.90;99.90
14529;DHT22;7351;51.194;4.098;2023-02-01T05:30:08;18.00;99.90
14529;DHT22;7351;51.194;4.098;2023-02-01T05:32:37;18.00;99.90
14529;DHT22;7351;51.194;4.098;2023-02-01T05:35:05;18.10;99.90
14529;DHT22;7351;51.194;4.098;2023-02-01T05:37:32;18.20;99.90
14529;DHT22;7351;51.194;4.098;2023-02-01T05:39:59;18.20;99.90
14529;DHT22;7351;51.194;4.098;2023-02-01T05:42:26;18.30;99.90
14529;DHT22;7351;51.194;4.098;2023-02-01T05:44:53;18.30;99.90
14529;DHT22;7351;51.194;4.098;2023-02-01T05:47:20;18.40;99.90
14529;DHT22;7351;51.194;4.098;2023-02-01T05:49:48;18.50;99.90
14529;DHT22;7351;51.194;4.098;2023-02-01T05:52:15;18.50;99.90
14529;DHT22;7351;51.194;4.098;2023-02-01T05:54:44;18.60;99.90
14529;DHT22;7351;51.194;4.098;2023-02-01T05:57:12;18.60;99.90
14529;DHT22;7351;51.194;4.098;2023-02-01T05:59:39;18.60;99.90
14529;DHT22;7351;51.194;4.098;2023-02-01T06:02:10;18.60;99.90
14529;DHT22;7351;51.194;4.098;2023-02-01T06:04:37;18.60;99.90
14529;DHT22;7351;51.194;4.098;2023-02-01T06:07:06;18.60;99.90
14529;DHT22;7351;51.194;4.098;2023-02-01T06:09:36;18.60;99.90
14529;DHT22;7351;51.194;4.098;2023-02-01T06:12:04;18.60;99.90
14529;DHT22;7351;51.194;4.098;2023-02-01T06:14:31;18.60;99.90
14529;DHT22;7351;51.194;4.098;2023-02-01T06:16:58;18.60;99.90
14529;DHT22;7351;51.194;4.098;2023-02-01T06:19:25;18.60;99.90
14529;DHT22;7351;51.194;4.098;2023-02-01T06:21:52;18.50;99.90
14529;DHT22;7351;51.194;4.098;2023-02-01T06:24:20;18.50;99.90
14529;DHT22;7351;51.194;4.098;2023-02-01T06:26:47;18.50;99.90
14529;DHT22;7351;51.194;4.098;2023-02-01T06:29:14;18.40;99.90
14529;DHT22;7351;51.194;4.098;2023-02-01T06:31:41;18.30;99.90
14529;DHT22;7351;51.194;4.098;2023-02-01T06:34:09;18.30;99.90
14529;DHT22;7351;51.194;4.098;2023-02-01T06:36:36;18.30;99.90
14529;DHT22;7351;51.194;4.098;2023-02-01T06:39:03;18.30;99.90
14529;DHT22;7351;51.194;4.098;2023-02-01T06:41:32;18.20;99.90
14529;DHT22;7351;51.194;4.098;2023-02-01T06:44:00;18.10;99.90
14529;DHT22;7351;51.194;4.098;2023-02-01T06:46:27;18.00;99.90
14529;DHT22;7351;51.194;4.098;2023-02-01T06:48:54;17.90;99.90
14529;DHT22;7351;51.194;4.098;2023-02-01T06:51:23;17.80;99.90
14529;DHT22;7351;51.194;4.098;2023-02-01T06:53:50;17.80;99.90
14529;DHT22;7351;51.194;4.098;2023-02-01T06:56:17;17.80;99.90
14529;DHT22;7351;51.194;4.098;2023-02-01T06:58:46;17.70;99.90
14529;DHT22;7351;51.194;4.098;2023-02-01T07:01:13;17.70;99.90
14529;DHT22;7351;51.194;4.098;2023-02-01T07:03:40;17.70;99.90
14529;DHT22;7351;51.194;4.098;2023-02-01T07:06:08;17.60;99.90
14529;DHT22;7351;51.194;4.098;2023-02-01T07:08:37;17.60;99.90
14529;DHT22;7351;51.194;4.098;2023-02-01T07:11:05;17.70;99.90
14529;DHT22;7351;51.194;4.098;2023-02-01T07:13:33;17.70;99.90
14529;DHT22;7351;51.194;4.098;2023-02-01T07:16:03;17.60;99.90
14529;DHT22;7351;51.194;4.098;2023-02-01T07:18:31;17.60;99.90
14529;DHT22;7351;51.194;4.098;2023-02-01T07:20:59;17.60;99.90
14529;DHT22;7351;51.194;4.098;2023-02-01T07:23:26;17.60;99.90
14529;DHT22;7351;51.194;4.098;2023-02-01T07:25:54;17.50;99.90
14529;DHT22;7351;51.194;4.098;2023-02-01T07:28:21;17.50;99.90
14529;DHT22;7351;51.194;4.098;2023-02-01T07:30:48;17.50;99.90
14529;DHT22;7351;51.194;4.098;2023-02-01T07:33:19;17.40;99.90
14529;DHT22;7351;51.194;4.098;2023-02-01T07:35:47;17.40;99.90
14529;DHT22;7351;51.194;4.098;2023-02-01T07:38:14;17.40;99.90
14529;DHT22;7351;51.194;4.098;2023-02-01T07:40:41;17.30;99.90
14529;DHT22;7351;51.194;4.098;2023-02-01T07:43:09;17.40;99.90
14529;DHT22;7351;51.194;4.098;2023-02-01T07:45:36;17.30;99.90
14529;DHT22;7351;51.194;4.098;2023-02-01T07:48:03;17.20;99.90
14529;DHT22;7351;51.194;4.098;2023-02-01T07:50:32;17.20;99.90
14529;DHT22;7351;51.194;4.098;2023-02-01T07:52:59;17.20;99.90
14529;DHT22;7351;51.194;4.098;2023-02-01T07:55:26;17.10;99.90
14529;DHT22;7351;51.194;4.098;2023-02-01T07:57:57;17.20;99.90
14529;DHT22;7351;51.194;4.098;2023-02-01T08:00:24;17.20;99.90
14529;DHT22;7351;51.194;4.098;2023-02-01T08:03:09;17.10;99.90
14529;DHT22;7351;51.194;4.098;2023-02-01T08:05:37;17.10;99.90
14529;DHT22;7351;51.194;4.098;2023-02-01T08:08:05;17.10;99.90
14529;DHT22;7351;51.194;4.098;2023-02-01T08:10:32;17.10;99.90
14529;DHT22;7351;51.194;4.098;2023-02-01T08:13:00;17.00;99.90
14529;DHT22;7351;51.194;4.098;2023-02-01T08:15:28;17.00;99.90
14529;DHT22;7351;51.194;4.098;2023-02-01T08:17:55;17.00;99.90
14529;DHT22;7351;51.194;4.098;2023-02-01T08:20:22;17.00;99.90
14529;DHT22;7351;51.194;4.098;2023-02-01T08:22:52;17.00;99.90
14529;DHT22;7351;51.194;4.098;2023-02-01T08:25:19;16.90;99.90
14529;DHT22;7351;51.194;4.098;2023-02-01T08:27:46;16.90;99.90
14529;DHT22;7351;51.194;4.098;2023-02-01T08:30:13;16.90;99.90
14529;DHT22;7351;51.194;4.098;2023-02-01T08:32:40;16.90;99.90
14529;DHT22;7351;51.194;4.098;2023-02-01T08:35:08;16.80;99.90
14529;DHT22;7351;51.194;4.098;2023-02-01T08:37:35;16.80;99.90
14529;DHT22;7351;51.194;4.098;2023-02-01T08:40:05;16.80;99.90
14529;DHT22;7351;51.194;4.098;2023-02-01T08:42:32;16.80;99.90
14529;DHT22;7351;51.194;4.098;2023-02-01T08:45:17;16.70;99.90
14529;DHT22;7351;51.194;4.098;2023-02-01T08:47:45;16.80;99.90
14529;DHT22;7351;51.194;4.098;2023-02-01T08:50:13;16.70;99.90
14529;DHT22;7351;51.194;4.098;2023-02-01T08:52:41;16.70;99.90
14529;DHT22;7351;51.194;4.098;2023-02-01T08:55:10;16.60;99.90
14529;DHT22;7351;51.194;4.098;2023-02-01T08:57:38;16.60;99.90
14529;DHT22;7351;51.194;4.098;2023-02-01T09:00:06;16.70;99.90
14529;DHT22;7351;51.194;4.098;2023-02-01T09:02:34;16.60;99.90
14529;DHT22;7351;51.194;4.098;2023-02-01T09:05:00;16.60;99.90
14529;DHT22;7351;51.194;4.098;2023-02-01T09:07:30;16.50;99.90
14529;DHT22;7351;51.194;4.098;2023-02-01T09:09:57;16.50;99.90
14529;DHT22;7351;51.194;4.098;2023-02-01T09:12:28;16.50;99.90
14529;DHT22;7351;51.194;4.098;2023-02-01T09:14:56;16.50;99.90
14529;DHT22;7351;51.194;4.098;2023-02-01T09:17:25;16.50;99.90
14529;DHT22;7351;51.194;4.098;2023-02-01T09:19:52;16.50;99.90
14529;DHT22;7351;51.194;4.098;2023-02-01T09:22:19;16.50;99.90
14529;DHT22;7351;51.194;4.098;2023-02-01T09:24:46;16.50;99.90
14529;DHT22;7351;51.194;4.098;2023-02-01T09:27:13;16.50;99.90
14529;DHT22;7351;51.194;4.098;2023-02-01T09:29:41;16.40;99.90
14529;DHT22;7351;51.194;4.098;2023-02-01T09:32:08;16.40;99.90
14529;DHT22;7351;51.194;4.098;2023-02-01T09:34:35;16.40;99.90
14529;DHT22;7351;51.194;4.098;2023-02-01T09:37:02;16.40;99.90
14529;DHT22;7351;51.194;4.098;2023-02-01T09:39:29;16.40;99.90
14529;DHT22;7351;51.194;4.098;2023-02-01T09:42:06;16.40;99.90
14529;DHT22;7351;51.194;4.098;2023-02-01T09:45:16;16.40;99.90
14529;DHT22;7351;51.194;4.098;2023-02-01T09:47:47;16.40;99.90
14529;DHT22;7351;51.194;4.098;2023-02-01T09:50:17;16.40;99.90
14529;DHT22;7351;51.194;4.098;2023-02-01T09:52:52;16.30;99.90
14529;DHT22;7351;51.194;4.098;2023-02-01T09:55:34;16.40;99.90
14529;DHT22;7351;51.194;4.098;2023-02-01T09:58:07;16.30;99.90
14529;DHT22;7351;51.194;4.098;2023-02-01T10:00:38;16.40;99.90
14529;DHT22;7351;51.194;4.098;2023-02-01T10:03:11;16.30;99.90
14529;DHT22;7351;51.194;4.098;2023-02-01T10:05:51;16.30;99.90
14529;DHT22;7351;51.194;4.098;2023-02-01T10:08:29;16.30;99.90
14529;DHT22;7351;51.194;4.098;2023-02-01T10:11:05;16.30;99.90
14529;DHT22;7351;51.194;4.098;2023-02-01T10:13:44;16.30;99.90
14529;DHT22;7351;51.194;4.098;2023-02-01T10:16:23;16.30;99.90
14529;DHT22;7351;51.194;4.098;2023-02-01T10:19:10;16.30;99.90
14529;DHT22;7351;51.194;4.098;2023-02-01T10:21:51;16.30;99.90
14529;DHT22;7351;51.194;4.098;2023-02-01T10:24:33;16.20;99.90
14529;DHT22;7351;51.194;4.098;2023-02-01T10:27:07;16.30;99.90
14529;DHT22;7351;51.194;4.098;2023-02-01T10:29:38;16.30;99.90
14529;DHT22;7351;51.194;4.098;2023-02-01T10:32:13;16.30;99.90
14529;DHT22;7351;51.194;4.098;2023-02-01T10:34:42;16.30;99.90
14529;DHT22;7351;51.194;4.098;2023-02-01T10:37:20;16.20;99.90
14529;DHT22;7351;51.194;4.098;2023-02-01T10:39:53;16.20;99.90
14529;DHT22;7351;51.194;4.098;2023-02-01T10:42:23;16.20;99.90
14529;DHT22;7351;51.194;4.098;2023-02-01T10:44:50;16.20;99.90
14529;DHT22;7351;51.194;4.098;2023-02-01T10:47:19;16.20;99.90
14529;DHT22;7351;51.194;4.098;2023-02-01T10:49:52;16.20;99.90
14529;DHT22;7351;51.194;4.098;2023-02-01T10:52:26;16.20;99.90
14529;DHT22;7351;51.194;4.098;2023-02-01T10:54:56;16.30;99.90
14529;DHT22;7351;51.194;4.098;2023-02-01T10:57:56;16.20;99.90
14529;DHT22;7351;51.194;4.098;2023-02-01T11:00:23;16.20;99.90
14529;DHT22;7351;51.194;4.098;2023-02-01T11:02:52;16.20;99.90
14529;DHT22;7351;51.194;4.098;2023-02-01T11:05:20;16.20;99.90
14529;DHT22;7351;51.194;4.098;2023-02-01T11:07:50;16.20;99.90
14529;DHT22;7351;51.194;4.098;2023-02-01T11:10:36;16.20;99.90
14529;DHT22;7351;51.194;4.098;2023-02-01T11:13:05;16.20;99.90
14529;DHT22;7351;51.194;4.098;2023-02-01T11:15:32;16.20;99.90
14529;DHT22;7351;51.194;4.098;2023-02-01T11:18:15;16.20;99.90
14529;DHT22;7351;51.194;4.098;2023-02-01T11:20:42;16.20;99.90
14529;DHT22;7351;51.194;4.098;2023-02-01T11:23:15;16.20;99.90
14529;DHT22;7351;51.194;4.098;2023-02-01T11:25:49;16.20;99.90
14529;DHT22;7351;51.194;4.098;2023-02-01T11:28:16;16.20;99.90
14529;DHT22;7351;51.194;4.098;2023-02-01T11:30:45;16.20;99.90
14529;DHT22;7351;51.194;4.098;2023-02-01T11:33:16;16.20;99.90
14529;DHT22;7351;51.194;4.098;2023-02-01T11:35:44;16.20;99.90
14529;DHT22;7351;51.194;4.098;2023-02-01T11:38:19;16.20;99.90
14529;DHT22;7351;51.194;4.098;2023-02-01T11:40:46;16.20;99.90
14529;DHT22;7351;51.194;4.098;2023-02-01T11:43:17;16.30;99.90
14529;DHT22;7351;51.194;4.098;2023-02-01T11:45:54;16.20;99.90
14529;DHT22;7351;51.194;4.098;2023-02-01T11:48:25;16.30;99.90
14529;DHT22;7351;51.194;4.098;2023-02-01T11:51:07;16.40;99.90
14529;DHT22;7351;51.194;4.098;2023-02-01T11:53:46;16.50;99.90
14529;DHT22;7351;51.194;4.098;2023-02-01T11:56:23;16.60;99.90
14529;DHT22;7351;51.194;4.098;2023-02-01T11:59:19;16.70;99.90
14529;DHT22;7351;51.194;4.098;2023-02-01T12:02:02;16.70;99.90
14529;DHT22;7351;51.194;4.098;2023-02-01T12:07:53;16.90;99.90
14529;DHT22;7351;51.194;4.098;2023-02-01T12:10:31;16.90;99.90
14529;DHT22;7351;51.194;4.098;2023-02-01T12:13:08;16.90;99.90
14529;DHT22;7351;51.194;4.098;2023-02-01T12:15:50;16.90;99.90
14529;DHT22;7351;51.194;4.098;2023-02-01T12:18:35;17.00;99.90
14529;DHT22;7351;51.194;4.098;2023-02-01T12:21:17;17.10;99.90
14529;DHT22;7351;51.194;4.098;2023-02-01T12:23:57;17.10;99.90
14529;DHT22;7351;51.194;4.098;2023-02-01T12:26:44;17.20;99.90
14529;DHT22;7351;51.194;4.098;2023-02-01T12:29:34;17.20;99.90
14529;DHT22;7351;51.194;4.098;2023-02-01T12:32:15;17.20;99.90
14529;DHT22;7351;51.194;4.098;2023-02-01T12:38:06;17.30;99.90
14529;DHT22;7351;51.194;4.098;2023-02-01T12:40:47;17.40;99.90
14529;DHT22;7351;51.194;4.098;2023-02-01T12:43:17;17.50;99.90
14529;DHT22;7351;51.194;4.098;2023-02-01T12:45:51;17.40;99.90
14529;DHT22;7351;51.194;4.098;2023-02-01T12:48:26;17.50;99.90
14529;DHT22;7351;51.194;4.098;2023-02-01T12:50:57;17.50;99.90
14529;DHT22;7351;51.194;4.098;2023-02-01T12:53:33;17.50;99.90
14529;DHT22;7351;51.194;4.098;2023-02-01T12:56:09;17.50;99.90
14529;DHT22;7351;51.194;4.098;2023-02-01T12:58:41;17.50;99.90
14529;DHT22;7351;51.194;4.098;2023-02-01T13:01:12;17.50;99.90
14529;DHT22;7351;51.194;4.098;2023-02-01T13:03:44;17.50;99.90
14529;DHT22;7351;51.194;4.098;2023-02-01T13:06:19;17.50;99.90
14529;DHT22;7351;51.194;4.098;2023-02-01T13:08:52;17.50;99.90
14529;DHT22;7351;51.194;4.098;2023-02-01T13:11:26;17.50;99.90
14529;DHT22;7351;51.194;4.098;2023-02-01T13:14:00;17.50;99.90
14529;DHT22;7351;51.194;4.098;2023-02-01T13:16:30;17.50;99.90
14529;DHT22;7351;51.194;4.098;2023-02-01T13:19:03;17.50;99.90
14529;DHT22;7351;51.194;4.098;2023-02-01T13:21:34;17.50;99.90
14529;DHT22;7351;51.194;4.098;2023-02-01T13:24:03;17.40;99.90
14529;DHT22;7351;51.194;4.098;2023-02-01T13:26:32;17.40;99.90
14529;DHT22;7351;51.194;4.098;2023-02-01T13:29:01;17.40;99.90
14529;DHT22;7351;51.194;4.098;2023-02-01T13:32:06;17.30;99.90
14529;DHT22;7351;51.194;4.098;2023-02-01T13:37:47;17.30;99.90
14529;DHT22;7351;51.194;4.098;2023-02-01T13:40:37;17.30;99.90
14529;DHT22;7351;51.194;4.098;2023-02-01T13:43:12;17.20;99.90
14529;DHT22;7351;51.194;4.098;2023-02-01T13:45:44;17.20;99.90
14529;DHT22;7351;51.194;4.098;2023-02-01T13:48:20;17.20;99.90
14529;DHT22;7351;51.194;4.098;2023-02-01T13:50:52;17.20;99.90
14529;DHT22;7351;51.194;4.098;2023-02-01T13:53:25;17.10;99.90
14529;DHT22;7351;51.194;4.098;2023-02-01T13:55:59;17.10;99.90
14529;DHT22;7351;51.194;4.098;2023-02-01T13:58:33;17.10;99.90
14529;DHT22;7351;51.194;4.098;2023-02-01T14:01:34;17.10;99.90
14529;DHT22;7351;51.194;4.098;2023-02-01T14:04:03;17.10;99.90
14529;DHT22;7351;51.194;4.098;2023-02-01T14:06:44;17.00;99.90
14529;DHT22;7351;51.194;4.098;2023-02-01T14:09:18;17.00;99.90
14529;DHT22;7351;51.194;4.098;2023-02-01T14:11:49;17.00;99.90
14529;DHT22;7351;51.194;4.098;2023-02-01T14:14:51;17.00;99.90
14529;DHT22;7351;51.194;4.098;2023-02-01T14:17:36;16.90;99.90
14529;DHT22;7351;51.194;4.098;2023-02-01T14:23:23;16.90;99.90
14529;DHT22;7351;51.194;4.098;2023-02-01T14:28:52;16.90;99.90
14529;DHT22;7351;51.194;4.098;2023-02-01T14:31:39;16.90;99.90
14529;DHT22;7351;51.194;4.098;2023-02-01T14:34:17;16.80;99.90
14529;DHT22;7351;51.194;4.098;2023-02-01T14:36:50;16.80;99.90
14529;DHT22;7351;51.194;4.098;2023-02-01T14:39:31;16.70;99.90
14529;DHT22;7351;51.194;4.098;2023-02-01T14:42:03;16.70;99.90
14529;DHT22;7351;51.194;4.098;2023-02-01T14:44:36;16.70;99.90
14529;DHT22;7351;51.194;4.098;2023-02-01T14:50:33;16.80;99.90
14529;DHT22;7351;51.194;4.098;2023-02-01T14:53:20;16.80;99.90
14529;DHT22;7351;51.194;4.098;2023-02-01T14:55:51;16.90;99.90
14529;DHT22;7351;51.194;4.098;2023-02-01T14:58:29;17.00;99.90
14529;DHT22;7351;51.194;4.098;2023-02-01T15:01:00;17.10;99.90
14529;DHT22;7351;51.194;4.098;2023-02-01T15:03:52;17.10;99.90
14529;DHT22;7351;51.194;4.098;2023-02-01T15:06:30;17.20;99.90
14529;DHT22;7351;51.194;4.098;2023-02-01T15:09:00;17.20;99.90
14529;DHT22;7351;51.194;4.098;2023-02-01T15:11:28;17.30;99.90
14529;DHT22;7351;51.194;4.098;2023-02-01T15:13:55;17.40;99.90
14529;DHT22;7351;51.194;4.098;2023-02-01T15:16:26;17.40;99.90
14529;DHT22;7351;51.194;4.098;2023-02-01T15:19:11;17.50;99.90
14529;DHT22;7351;51.194;4.098;2023-02-01T15:21:46;17.50;99.90
14529;DHT22;7351;51.194;4.098;2023-02-01T15:24:19;17.50;99.90
14529;DHT22;7351;51.194;4.098;2023-02-01T15:26:46;17.60;99.90
14529;DHT22;7351;51.194;4.098;2023-02-01T15:29:14;17.60;99.90
14529;DHT22;7351;51.194;4.098;2023-02-01T15:31:43;17.60;99.90
14529;DHT22;7351;51.194;4.098;2023-02-01T15:34:12;17.60;99.90
14529;DHT22;7351;51.194;4.098;2023-02-01T15:36:40;17.70;99.90
14529;DHT22;7351;51.194;4.098;2023-02-01T15:39:20;17.70;99.90
14529;DHT22;7351;51.194;4.098;2023-02-01T15:41:50;17.80;99.90
14529;DHT22;7351;51.194;4.098;2023-02-01T15:44:29;17.80;99.90
14529;DHT22;7351;51.194;4.098;2023-02-01T15:46:58;17.80;99.90
14529;DHT22;7351;51.194;4.098;2023-02-01T15:49:28;17.80;99.90
14529;DHT22;7351;51.194;4.098;2023-02-01T15:51:57;17.80;99.90
14529;DHT22;7351;51.194;4.098;2023-02-01T15:54:27;17.90;99.90
14529;DHT22;7351;51.194;4.098;2023-02-01T15:56:59;17.90;99.90
14529;DHT22;7351;51.194;4.098;2023-02-01T15:59:31;17.90;99.90
14529;DHT22;7351;51.194;4.098;2023-02-01T16:01:58;17.90;99.90
14529;DHT22;7351;51.194;4.098;2023-02-01T16:04:28;18.00;99.90
14529;DHT22;7351;51.194;4.098;2023-02-01T16:06:58;18.00;99.90
14529;DHT22;7351;51.194;4.098;2023-02-01T16:09:37;18.00;99.90
14529;DHT22;7351;51.194;4.098;2023-02-01T16:12:29;18.00;99.90
14529;DHT22;7351;51.194;4.098;2023-02-01T16:14:57;18.00;99.90
14529;DHT22;7351;51.194;4.098;2023-02-01T16:17:23;18.10;99.90
14529;DHT22;7351;51.194;4.098;2023-02-01T16:19:52;18.10;99.90
14529;DHT22;7351;51.194;4.098;2023-02-01T16:22:19;18.10;99.90
14529;DHT22;7351;51.194;4.098;2023-02-01T16:24:46;18.10;99.90
14529;DHT22;7351;51.194;4.098;2023-02-01T16:27:13;18.10;99.90
14529;DHT22;7351;51.194;4.098;2023-02-01T16:29:40;18.10;99.90
14529;DHT22;7351;51.194;4.098;2023-02-01T16:32:14;18.20;99.90
14529;DHT22;7351;51.194;4.098;2023-02-01T16:34:42;18.20;99.90
14529;DHT22;7351;51.194;4.098;2023-02-01T16:37:12;18.20;99.90